sensor_id;sensor_type;location;lat;lon;timestamp;pressure;altitude;pressure_sealevel;temperature;humidity
50854;BME280;44154;45.506;-122.806;2023-05-02T00:00:47;100026.53;;;24.41;37.67
50854;BME280;44154;45.506;-122.806;2023-05-02T00:03:14;100038.31;;;24.47;37.76
50854;BME280;44154;45.506;-122.806;2023-05-02T00:05:41;100026.00;;;24.50;37.61
50854;BME280;44154;45.506;-122.806;2023-05-02T00:08:08;100026.31;;;24.53;37.36
50854;BME280;44154;45.506;-122.806;2023-05-02T00:10:34;100036.41;;;24.58;37.42
50854;BME280;44154;45.506;-122.806;2023-05-02T00:13:00;100044.34;;;24.54;37.41
50854;BME280;44154;45.506;-122.806;2023-05-02T00:15:26;100041.63;;;24.49;37.61
50854;BME280;44154;45.506;-122.806;2023-05-02T00:17:53;100044.06;;;24.51;38.12
50854;BME280;44154;45.506;-122.806;2023-05-02T00:20:19;100026.81;;;24.40;38.22
50854;BME280;44154;45.506;-122.806;2023-05-02T00:22:45;100023.81;;;24.36;38.51
50854;BME280;44154;45.506;-122.806;2023-05-02T00:25:11;100013.69;;;24.37;38.55
50854;BME280;44154;45.506;-122.806;2023-05-02T00:27:42;100040.50;;;24.55;38.24
50854;BME280;44154;45.506;-122.806;2023-05-02T00:30:11;100041.59;;;24.54;38.17
50854;BME280;44154;45.506;-122.806;2023-05-02T00:32:37;100036.97;;;24.50;37.66
50854;BME280;44154;45.506;-122.806;2023-05-02T00:35:04;100050.88;;;24.43;37.84
50854;BME280;44154;45.506;-122.806;2023-05-02T00:37:30;100009.31;;;24.20;37.84
50854;BME280;44154;45.506;-122.806;2023-05-02T00:39:57;100050.09;;;24.48;37.82
50854;BME280;44154;45.506;-122.806;2023-05-02T00:42:23;100032.84;;;24.42;37.59
50854;BME280;44154;45.506;-122.806;2023-05-02T00:44:50;100045.44;;;24.48;37.48
50854;BME280;44154;45.506;-122.806;2023-05-02T00:47:16;99987.44;;;24.15;37.40
50854;BME280;44154;45.506;-122.806;2023-05-02T00:49:42;100044.34;;;24.54;37.39
50854;BME280;44154;45.506;-122.806;2023-05-02T00:52:09;100038.31;;;24.57;37.54
50854;BME280;44154;45.506;-122.806;2023-05-02T00:54:36;100039.13;;;24.53;37.46
50854;BME280;44154;45.506;-122.806;2023-05-02T00:57:04;100033.97;;;24.62;37.59
50854;BME280;44154;45.506;-122.806;2023-05-02T00:59:30;100018.09;;;24.53;37.39
50854;BME280;44154;45.506;-122.806;2023-05-02T01:07:34;100014.81;;;24.46;37.49
50854;BME280;44154;45.506;-122.806;2023-05-02T01:10:33;100008.53;;;24.61;37.12
50854;BME280;44154;45.506;-122.806;2023-05-02T01:13:31;100013.75;;;24.68;37.13
50854;BME280;44154;45.506;-122.806;2023-05-02T01:15:59;100002.78;;;24.73;37.03
50854;BME280;44154;45.506;-122.806;2023-05-02T01:18:32;100005.50;;;24.73;37.18
50854;BME280;44154;45.506;-122.806;2023-05-02T01:21:03;100004.16;;;24.70;37.27
50854;BME280;44154;45.506;-122.806;2023-05-02T01:26:39;100008.78;;;24.80;36.99
50854;BME280;44154;45.506;-122.806;2023-05-02T01:29:11;100014.28;;;24.75;37.07
50854;BME280;44154;45.506;-122.806;2023-05-02T01:31:41;99998.66;;;24.70;37.14
50854;BME280;44154;45.506;-122.806;2023-05-02T01:34:10;99985.84;;;24.61;37.52
50854;BME280;44154;45.506;-122.806;2023-05-02T01:36:48;100000.06;;;24.68;37.87
50854;BME280;44154;45.506;-122.806;2023-05-02T01:39:19;100001.16;;;24.62;38.80
50854;BME280;44154;45.506;-122.806;2023-05-02T01:41:49;100012.06;;;24.72;38.73
50854;BME280;44154;45.506;-122.806;2023-05-02T01:44:18;99991.84;;;24.78;39.09
50854;BME280;44154;45.506;-122.806;2023-05-02T01:46:45;99995.66;;;24.82;38.92
50854;BME280;44154;45.506;-122.806;2023-05-02T01:49:13;100007.41;;;24.98;38.77
50854;BME280;44154;45.506;-122.806;2023-05-02T01:51:44;100001.09;;;24.98;38.27
50854;BME280;44154;45.506;-122.806;2023-05-02T01:54:12;100006.31;;;24.94;38.56
50854;BME280;44154;45.506;-122.806;2023-05-02T01:56:41;100019.16;;;24.99;38.00
50854;BME280;44154;45.506;-122.806;2023-05-02T01:59:11;99990.19;;;24.82;38.17
50854;BME280;44154;45.506;-122.806;2023-05-02T02:01:39;100019.16;;;24.99;38.07
50854;BME280;44154;45.506;-122.806;2023-05-02T02:04:08;100019.16;;;24.99;37.98
50854;BME280;44154;45.506;-122.806;2023-05-02T02:06:36;100025.19;;;25.01;37.97
50854;BME280;44154;45.506;-122.806;2023-05-02T02:09:02;100015.09;;;24.91;38.37
50854;BME280;44154;45.506;-122.806;2023-05-02T02:11:45;100032.31;;;24.91;38.67
50854;BME280;44154;45.506;-122.806;2023-05-02T02:14:20;100020.28;;;24.87;38.39
50854;BME280;44154;45.506;-122.806;2023-05-02T02:16:48;100014.00;;;24.87;38.17
50854;BME280;44154;45.506;-122.806;2023-05-02T02:19:16;100000.88;;;24.79;38.74
50854;BME280;44154;45.506;-122.806;2023-05-02T02:21:45;99997.84;;;24.80;38.79
50854;BME280;44154;45.506;-122.806;2023-05-02T02:24:13;99979.25;;;24.62;38.90
50854;BME280;44154;45.506;-122.806;2023-05-02T02:26:41;99952.97;;;24.55;39.44
50854;BME280;44154;45.506;-122.806;2023-05-02T02:29:09;99954.63;;;24.67;39.21
50854;BME280;44154;45.506;-122.806;2023-05-02T02:31:36;99968.31;;;24.82;38.98
50854;BME280;44154;45.506;-122.806;2023-05-02T02:34:04;99979.78;;;24.84;38.77
50854;BME280;44154;45.506;-122.806;2023-05-02T02:36:56;99990.19;;;24.82;39.57
50854;BME280;44154;45.506;-122.806;2023-05-02T02:47:47;100003.31;;;24.85;39.33
50854;BME280;44154;45.506;-122.806;2023-05-02T02:50:37;100011.81;;;24.84;39.20
50854;BME280;44154;45.506;-122.806;2023-05-02T02:53:16;99993.75;;;24.67;39.36
50854;BME280;44154;45.506;-122.806;2023-05-02T02:55:56;99992.38;;;24.80;39.07
50854;BME280;44154;45.506;-122.806;2023-05-02T03:01:03;99954.38;;;24.68;39.07
50854;BME280;44154;45.506;-122.806;2023-05-02T03:03:31;99973.25;;;24.59;39.63
50854;BME280;44154;45.506;-122.806;2023-05-02T03:05:59;99985.81;;;24.66;39.66
50854;BME280;44154;45.506;-122.806;2023-05-02T03:08:25;100004.97;;;24.71;39.40
50854;BME280;44154;45.506;-122.806;2023-05-02T03:10:52;100013.75;;;24.68;39.59
50854;BME280;44154;45.506;-122.806;2023-05-02T03:13:18;100013.16;;;24.76;39.11
50854;BME280;44154;45.506;-122.806;2023-05-02T03:18:48;100018.66;;;24.71;38.86
50854;BME280;44154;45.506;-122.806;2023-05-02T03:21:14;99977.59;;;24.40;38.97
50854;BME280;44154;45.506;-122.806;2023-05-02T03:23:41;100020.56;;;24.75;38.88
50854;BME280;44154;45.506;-122.806;2023-05-02T03:26:07;100023.56;;;24.79;38.58
50854;BME280;44154;45.506;-122.806;2023-05-02T03:28:34;100020.31;;;24.82;38.72
50854;BME280;44154;45.506;-122.806;2023-05-02T03:31:00;100038.63;;;24.82;38.35
50854;BME280;44154;45.506;-122.806;2023-05-02T03:33:27;100058.06;;;24.80;38.42
50854;BME280;44154;45.506;-122.806;2023-05-02T03:35:53;100069.56;;;24.82;38.44
50854;BME280;44154;45.506;-122.806;2023-05-02T03:38:19;100088.44;;;24.89;38.40
50854;BME280;44154;45.506;-122.806;2023-05-02T03:40:45;100074.47;;;24.90;38.24
50854;BME280;44154;45.506;-122.806;2023-05-02T03:43:11;100059.69;;;24.91;37.96
50854;BME280;44154;45.506;-122.806;2023-05-02T03:45:37;100042.47;;;24.81;38.14
50854;BME280;44154;45.506;-122.806;2023-05-02T03:48:04;100053.69;;;24.74;38.02
50854;BME280;44154;45.506;-122.806;2023-05-02T03:50:30;100089.00;;;24.91;38.10
50854;BME280;44154;45.506;-122.806;2023-05-02T03:52:57;100095.81;;;24.83;38.14
50854;BME280;44154;45.506;-122.806;2023-05-02T03:55:23;100092.00;;;24.84;38.15
50854;BME280;44154;45.506;-122.806;2023-05-02T03:57:49;100073.09;;;24.77;37.89
50854;BME280;44154;45.506;-122.806;2023-05-02T04:00:15;100075.03;;;24.87;38.06
50854;BME280;44154;45.506;-122.806;2023-05-02T04:02:42;100085.97;;;24.87;38.11
50854;BME280;44154;45.506;-122.806;2023-05-02T04:05:08;100079.69;;;24.87;38.04
50854;BME280;44154;45.506;-122.806;2023-05-02T04:07:34;100047.94;;;24.75;37.96
50854;BME280;44154;45.506;-122.806;2023-05-02T04:10:00;100059.44;;;24.88;38.10
50854;BME280;44154;45.506;-122.806;2023-05-02T04:12:27;100043.53;;;24.85;37.93
50854;BME280;44154;45.506;-122.806;2023-05-02T04:14:53;100044.38;;;24.85;38.01
50854;BME280;44154;45.506;-122.806;2023-05-02T04:17:20;100041.91;;;24.84;37.98
50854;BME280;44154;45.506;-122.806;2023-05-02T04:19:46;100024.41;;;24.80;37.93
50854;BME280;44154;45.506;-122.806;2023-05-02T04:22:12;100018.09;;;24.79;38.04
50854;BME280;44154;45.506;-122.806;2023-05-02T04:24:38;100007.69;;;24.76;38.20
50854;BME280;44154;45.506;-122.806;2023-05-02T04:27:05;99999.22;;;24.72;38.03
50854;BME280;44154;45.506;-122.806;2023-05-02T04:29:31;99993.47;;;24.74;38.28
50854;BME280;44154;45.506;-122.806;2023-05-02T04:31:57;100004.16;;;24.70;38.21
50854;BME280;44154;45.506;-122.806;2023-05-02T04:34:23;99990.19;;;24.56;37.92
50854;BME280;44154;45.506;-122.806;2023-05-02T04:36:49;100010.44;;;24.66;38.00
50854;BME280;44154;45.506;-122.806;2023-05-02T04:39:16;100029.59;;;24.71;38.07
50854;BME280;44154;45.506;-122.806;2023-05-02T04:41:42;100023.56;;;24.58;38.25
50854;BME280;44154;45.506;-122.806;2023-05-02T04:44:08;100042.75;;;24.64;38.06
50854;BME280;44154;45.506;-122.806;2023-05-02T04:46:34;100033.69;;;24.58;38.19
50854;BME280;44154;45.506;-122.806;2023-05-02T04:49:00;100033.69;;;24.63;38.08
50854;BME280;44154;45.506;-122.806;2023-05-02T04:51:27;100046.00;;;24.66;37.97
50854;BME280;44154;45.506;-122.806;2023-05-02T04:53:53;100053.97;;;24.62;38.01
50854;BME280;44154;45.506;-122.806;2023-05-02T04:56:19;100072.28;;;24.67;38.09
50854;BME280;44154;45.506;-122.806;2023-05-02T04:58:46;100085.97;;;24.67;38.03
50854;BME280;44154;45.506;-122.806;2023-05-02T05:01:12;100075.31;;;24.65;38.04
50854;BME280;44154;45.506;-122.806;2023-05-02T05:03:38;100072.56;;;24.65;37.96
50854;BME280;44154;45.506;-122.806;2023-05-02T05:06:05;100070.91;;;24.64;38.10
50854;BME280;44154;45.506;-122.806;2023-05-02T05:08:31;100080.50;;;24.67;38.06
50854;BME280;44154;45.506;-122.806;2023-05-02T05:10:57;100076.13;;;24.61;37.91
50854;BME280;44154;45.506;-122.806;2023-05-02T05:13:24;100076.69;;;24.68;37.92
50854;BME280;44154;45.506;-122.806;2023-05-02T05:15:50;100070.66;;;24.61;37.89
50854;BME280;44154;45.506;-122.806;2023-05-02T05:18:16;100083.78;;;24.64;37.93
50854;BME280;44154;45.506;-122.806;2023-05-02T05:20:43;100085.41;;;24.65;38.01
50854;BME280;44154;45.506;-122.806;2023-05-02T05:23:09;100100.47;;;24.62;37.94
50854;BME280;44154;45.506;-122.806;2023-05-02T05:25:35;100120.44;;;24.63;37.84
50854;BME280;44154;45.506;-122.806;2023-05-02T05:28:01;100135.22;;;24.62;38.10
50854;BME280;44154;45.506;-122.806;2023-05-02T05:30:28;100141.72;;;24.50;38.03
50854;BME280;44154;45.506;-122.806;2023-05-02T05:32:56;100145.28;;;24.56;37.94
50854;BME280;44154;45.506;-122.806;2023-05-02T05:35:26;100151.59;;;24.56;38.22
50854;BME280;44154;45.506;-122.806;2023-05-02T05:37:52;100126.94;;;24.41;38.07
50854;BME280;44154;45.506;-122.806;2023-05-02T05:40:18;100145.59;;;24.59;37.98
50854;BME280;44154;45.506;-122.806;2023-05-02T05:42:45;100145.00;;;24.57;38.09
50854;BME280;44154;45.506;-122.806;2023-05-02T05:45:12;100141.16;;;24.43;38.05
50854;BME280;44154;45.506;-122.806;2023-05-02T05:47:39;100159.78;;;24.51;38.14
50854;BME280;44154;45.506;-122.806;2023-05-02T05:50:06;100169.91;;;24.51;37.86
50854;BME280;44154;45.506;-122.806;2023-05-02T05:52:32;100184.09;;;24.42;38.31
50854;BME280;44154;45.506;-122.806;2023-05-02T05:54:58;100185.47;;;24.40;38.08
50854;BME280;44154;45.506;-122.806;2023-05-02T05:57:25;100174.25;;;24.36;38.19
50854;BME280;44154;45.506;-122.806;2023-05-02T05:59:51;100151.25;;;24.32;38.21
50854;BME280;44154;45.506;-122.806;2023-05-02T06:02:17;100152.06;;;24.28;38.10
50854;BME280;44154;45.506;-122.806;2023-05-02T06:04:44;100144.41;;;24.24;38.46
50854;BME280;44154;45.506;-122.806;2023-05-02T06:07:11;100131.00;;;24.28;38.01
50854;BME280;44154;45.506;-122.806;2023-05-02T06:09:38;100128.81;;;24.25;40.87
50854;BME280;44154;45.506;-122.806;2023-05-02T06:12:04;100117.63;;;24.32;39.20
50854;BME280;44154;45.506;-122.806;2023-05-02T06:14:30;100113.00;;;24.42;38.71
50854;BME280;44154;45.506;-122.806;2023-05-02T06:16:58;100091.38;;;24.41;38.74
50854;BME280;44154;45.506;-122.806;2023-05-02T06:19:25;100086.44;;;24.43;39.80
50854;BME280;44154;45.506;-122.806;2023-05-02T06:21:51;100084.28;;;24.45;39.72
50854;BME280;44154;45.506;-122.806;2023-05-02T06:24:17;100082.63;;;24.54;39.81
50854;BME280;44154;45.506;-122.806;2023-05-02T06:26:43;100089.22;;;24.58;39.85
50854;BME280;44154;45.506;-122.806;2023-05-02T06:29:10;100098.03;;;24.61;40.06
50854;BME280;44154;45.506;-122.806;2023-05-02T06:31:37;100106.22;;;24.66;39.96
50854;BME280;44154;45.506;-122.806;2023-05-02T06:34:03;100100.47;;;24.62;40.29
50854;BME280;44154;45.506;-122.806;2023-05-02T06:36:29;100092.00;;;24.64;40.37
50854;BME280;44154;45.506;-122.806;2023-05-02T06:38:56;100089.25;;;24.69;40.34
50854;BME280;44154;45.506;-122.806;2023-05-02T06:41:22;100083.50;;;24.70;40.12
50854;BME280;44154;45.506;-122.806;2023-05-02T06:43:48;100041.06;;;24.52;39.95
50854;BME280;44154;45.506;-122.806;2023-05-02T06:46:14;100050.94;;;24.74;39.68
50854;BME280;44154;45.506;-122.806;2023-05-02T06:48:40;100049.88;;;24.75;39.76
50854;BME280;44154;45.506;-122.806;2023-05-02T06:51:07;100033.16;;;24.76;39.67
50854;BME280;44154;45.506;-122.806;2023-05-02T06:53:33;100010.44;;;24.76;39.46
50854;BME280;44154;45.506;-122.806;2023-05-02T06:55:59;99995.94;;;24.75;39.63
50854;BME280;44154;45.506;-122.806;2023-05-02T06:58:25;99984.72;;;24.72;40.27
50854;BME280;44154;45.506;-122.806;2023-05-02T07:00:52;99984.72;;;24.72;40.42
50854;BME280;44154;45.506;-122.806;2023-05-02T07:03:18;100005.78;;;24.71;40.88
50854;BME280;44154;45.506;-122.806;2023-05-02T07:05:44;100005.78;;;24.71;40.94
50854;BME280;44154;45.506;-122.806;2023-05-02T07:08:10;100006.06;;;24.70;41.42
50854;BME280;44154;45.506;-122.806;2023-05-02T07:10:36;100001.72;;;24.64;40.83
50854;BME280;44154;45.506;-122.806;2023-05-02T07:13:02;100040.53;;;24.76;41.16
50854;BME280;44154;45.506;-122.806;2023-05-02T07:15:28;100028.50;;;24.72;41.64
50854;BME280;44154;45.506;-122.806;2023-05-02T07:17:55;100002.25;;;24.61;41.90
50854;BME280;44154;45.506;-122.806;2023-05-02T07:20:21;100018.94;;;24.69;41.73
50854;BME280;44154;45.506;-122.806;2023-05-02T07:22:47;100017.28;;;24.68;40.87
50854;BME280;44154;45.506;-122.806;2023-05-02T07:25:14;100029.59;;;24.66;41.30
50854;BME280;44154;45.506;-122.806;2023-05-02T07:27:40;100031.25;;;24.62;41.47
50854;BME280;44154;45.506;-122.806;2023-05-02T07:30:08;100024.63;;;24.57;41.55
50854;BME280;44154;45.506;-122.806;2023-05-02T07:32:36;100012.06;;;24.51;41.73
50854;BME280;44154;45.506;-122.806;2023-05-02T07:35:03;100036.16;;;24.65;41.62
50854;BME280;44154;45.506;-122.806;2023-05-02T07:37:33;100048.22;;;24.74;40.97
50854;BME280;44154;45.506;-122.806;2023-05-02T07:40:01;100032.34;;;24.81;40.32
50854;BME280;44154;45.506;-122.806;2023-05-02T07:42:31;100014.81;;;24.87;39.75
50854;BME280;44154;45.506;-122.806;2023-05-02T07:45:01;99973.47;;;24.89;39.84
50854;BME280;44154;45.506;-122.806;2023-05-02T07:47:28;99950.22;;;24.97;39.83
50854;BME280;44154;45.506;-122.806;2023-05-02T07:49:54;99920.38;;;24.95;39.35
50854;BME280;44154;45.506;-122.806;2023-05-02T07:52:21;99895.22;;;24.88;38.91
50854;BME280;44154;45.506;-122.806;2023-05-02T07:54:48;99899.28;;;24.90;38.77
50854;BME280;44154;45.506;-122.806;2023-05-02T07:57:14;99881.25;;;24.79;38.68
50854;BME280;44154;45.506;-122.806;2023-05-02T07:59:40;99896.09;;;24.68;38.75
50854;BME280;44154;45.506;-122.806;2023-05-02T08:02:07;99976.53;;;24.62;39.73
50854;BME280;44154;45.506;-122.806;2023-05-02T08:04:33;99964.19;;;24.18;39.09
50854;BME280;44154;45.506;-122.806;2023-05-02T08:06:59;100015.09;;;24.60;39.57
50854;BME280;44154;45.506;-122.806;2023-05-02T08:09:26;100007.41;;;24.57;39.28
50854;BME280;44154;45.506;-122.806;2023-05-02T08:11:52;99998.66;;;24.50;39.61
50854;BME280;44154;45.506;-122.806;2023-05-02T08:14:18;100014.53;;;24.42;39.99
50854;BME280;44154;45.506;-122.806;2023-05-02T08:16:44;99980.31;;;24.14;40.31
50854;BME280;44154;45.506;-122.806;2023-05-02T08:19:10;100026.28;;;24.43;39.98
50854;BME280;44154;45.506;-122.806;2023-05-02T08:21:37;100032.03;;;24.36;39.75
50854;BME280;44154;45.506;-122.806;2023-05-02T08:24:03;100041.88;;;24.32;39.83
50854;BME280;44154;45.506;-122.806;2023-05-02T08:26:29;100037.75;;;24.19;39.73
50854;BME280;44154;45.506;-122.806;2023-05-02T08:28:55;100026.25;;;24.22;39.88
50854;BME280;44154;45.506;-122.806;2023-05-02T08:31:22;100027.09;;;24.18;39.97
50854;BME280;44154;45.506;-122.806;2023-05-02T08:33:48;100012.03;;;24.05;40.12
50854;BME280;44154;45.506;-122.806;2023-05-02T08:36:15;100033.38;;;24.13;40.44
50854;BME280;44154;45.506;-122.806;2023-05-02T08:38:43;100037.72;;;24.14;40.60
50854;BME280;44154;45.506;-122.806;2023-05-02T08:41:18;100038.28;;;24.16;40.88
50854;BME280;44154;45.506;-122.806;2023-05-02T08:43:45;100020.81;;;24.17;41.02
50854;BME280;44154;45.506;-122.806;2023-05-02T08:46:14;100023.81;;;24.16;40.79
50854;BME280;44154;45.506;-122.806;2023-05-02T08:48:43;100014.22;;;24.13;40.89
50854;BME280;44154;45.506;-122.806;2023-05-02T08:51:12;99994.78;;;24.10;41.65
50854;BME280;44154;45.506;-122.806;2023-05-02T08:53:39;100004.94;;;24.09;40.55
50854;BME280;44154;45.506;-122.806;2023-05-02T08:56:06;100006.81;;;23.98;40.34
50854;BME280;44154;45.506;-122.806;2023-05-02T08:58:38;100039.66;;;24.14;40.14
50854;BME280;44154;45.506;-122.806;2023-05-02T09:01:17;100045.91;;;24.14;40.01
50854;BME280;44154;45.506;-122.806;2023-05-02T09:03:45;100054.41;;;24.13;40.08
50854;BME280;44154;45.506;-122.806;2023-05-02T09:06:16;100070.81;;;24.13;39.95
50854;BME280;44154;45.506;-122.806;2023-05-02T09:08:45;100076.84;;;24.15;40.06
50854;BME280;44154;45.506;-122.806;2023-05-02T09:11:14;100082.03;;;24.16;39.92
50854;BME280;44154;45.506;-122.806;2023-05-02T09:13:45;100092.41;;;24.14;39.91
50854;BME280;44154;45.506;-122.806;2023-05-02T09:16:22;100089.94;;;24.13;39.94
50854;BME280;44154;45.506;-122.806;2023-05-02T09:18:57;100077.66;;;24.10;39.98
50854;BME280;44154;45.506;-122.806;2023-05-02T09:21:25;100060.13;;;24.06;39.99
50854;BME280;44154;45.506;-122.806;2023-05-02T09:23:56;99972.94;;;23.94;39.94
50854;BME280;44154;45.506;-122.806;2023-05-02T09:26:28;99927.03;;;24.01;39.99
50854;BME280;44154;45.506;-122.806;2023-05-02T09:28:57;99828.88;;;23.84;40.10
50854;BME280;44154;45.506;-122.806;2023-05-02T09:31:31;99708.09;;;23.87;40.22
50854;BME280;44154;45.506;-122.806;2023-05-02T09:34:10;99583.50;;;23.81;40.32
50854;BME280;44154;45.506;-122.806;2023-05-02T09:39:12;99680.22;;;23.75;41.92
50854;BME280;44154;45.506;-122.806;2023-05-02T09:44:12;99726.41;;;23.71;43.07
50854;BME280;44154;45.506;-122.806;2023-05-02T09:46:49;99781.88;;;24.03;42.89
50854;BME280;44154;45.506;-122.806;2023-05-02T09:49:16;99850.19;;;24.18;42.65
50854;BME280;44154;45.506;-122.806;2023-05-02T09:51:46;99896.94;;;24.12;41.55
50854;BME280;44154;45.506;-122.806;2023-05-02T09:54:13;99938.75;;;24.22;41.14
50854;BME280;44154;45.506;-122.806;2023-05-02T09:56:55;99940.97;;;24.10;40.74
50854;BME280;44154;45.506;-122.806;2023-05-02T09:59:22;99937.13;;;24.16;40.48
50854;BME280;44154;45.506;-122.806;2023-05-02T10:01:59;99928.63;;;24.02;40.45
50854;BME280;44154;45.506;-122.806;2023-05-02T10:04:27;99936.59;;;24.09;40.39
50854;BME280;44154;45.506;-122.806;2023-05-02T10:06:55;99941.78;;;24.11;40.47
50854;BME280;44154;45.506;-122.806;2023-05-02T10:09:22;99939.84;;;24.11;40.49
50854;BME280;44154;45.506;-122.806;2023-05-02T10:11:53;99926.19;;;24.11;40.42
50854;BME280;44154;45.506;-122.806;2023-05-02T10:14:20;99907.59;;;24.08;40.68
50854;BME280;44154;45.506;-122.806;2023-05-02T10:17:07;99907.03;;;24.01;40.46
50854;BME280;44154;45.506;-122.806;2023-05-02T10:19:41;99909.78;;;24.01;40.52
50854;BME280;44154;45.506;-122.806;2023-05-02T10:22:11;99908.69;;;23.97;40.66
50854;BME280;44154;45.506;-122.806;2023-05-02T10:24:39;99879.13;;;23.78;40.97
50854;BME280;44154;45.506;-122.806;2023-05-02T10:27:06;99885.41;;;23.84;40.72
50854;BME280;44154;45.506;-122.806;2023-05-02T10:29:34;99886.78;;;23.76;40.82
50854;BME280;44154;45.506;-122.806;2023-05-02T10:32:02;99908.91;;;23.75;41.72
50854;BME280;44154;45.506;-122.806;2023-05-02T10:34:31;99903.69;;;23.52;42.16
50854;BME280;44154;45.506;-122.806;2023-05-02T10:36:58;99891.09;;;23.51;41.99
50854;BME280;44154;45.506;-122.806;2023-05-02T10:39:28;99901.81;;;23.79;42.32
50854;BME280;44154;45.506;-122.806;2023-05-02T10:41:56;99895.00;;;23.81;41.20
50854;BME280;44154;45.506;-122.806;2023-05-02T10:44:35;99904.84;;;23.93;41.32
50854;BME280;44154;45.506;-122.806;2023-05-02T10:47:17;99897.19;;;24.00;41.45
50854;BME280;44154;45.506;-122.806;2023-05-02T10:49:59;99863.53;;;23.84;41.72
50854;BME280;44154;45.506;-122.806;2023-05-02T11:02:57;99870.41;;;23.86;41.83
50854;BME280;44154;45.506;-122.806;2023-05-02T11:05:24;99858.66;;;23.86;41.58
50854;BME280;44154;45.506;-122.806;2023-05-02T11:10:42;99864.66;;;23.83;41.91
50854;BME280;44154;45.506;-122.806;2023-05-02T11:13:11;99857.81;;;23.80;42.10
50854;BME280;44154;45.506;-122.806;2023-05-02T11:18:07;99864.94;;;23.81;41.80
50854;BME280;44154;45.506;-122.806;2023-05-02T11:20:34;99854.53;;;23.68;41.63
50854;BME280;44154;45.506;-122.806;2023-05-02T11:25:56;99884.84;;;23.66;41.65
50854;BME280;44154;45.506;-122.806;2023-05-02T11:31:07;99848.47;;;23.30;42.00
50854;BME280;44154;45.506;-122.806;2023-05-02T11:33:34;99853.13;;;23.55;41.88
50854;BME280;44154;45.506;-122.806;2023-05-02T11:36:01;99840.31;;;23.71;41.62
50854;BME280;44154;45.506;-122.806;2023-05-02T11:38:35;99858.13;;;23.89;41.14
50854;BME280;44154;45.506;-122.806;2023-05-02T11:41:01;99868.25;;;23.88;40.86
50854;BME280;44154;45.506;-122.806;2023-05-02T11:43:29;99863.59;;;23.89;40.86
50854;BME280;44154;45.506;-122.806;2023-05-02T11:45:56;99857.31;;;23.88;41.33
50854;BME280;44154;45.506;-122.806;2023-05-02T11:48:24;99852.91;;;23.82;41.57
50854;BME280;44154;45.506;-122.806;2023-05-02T11:50:57;99844.69;;;23.82;41.75
50854;BME280;44154;45.506;-122.806;2023-05-02T11:53:25;99834.88;;;23.81;41.92
50854;BME280;44154;45.506;-122.806;2023-05-02T11:55:58;99830.22;;;23.77;42.07
50854;BME280;44154;45.506;-122.806;2023-05-02T11:58:29;99810.28;;;23.66;42.10
50854;BME280;44154;45.506;-122.806;2023-05-02T12:00:58;99817.66;;;23.70;42.01
50854;BME280;44154;45.506;-122.806;2023-05-02T12:03:32;99825.56;;;23.72;41.81
50854;BME280;44154;45.506;-122.806;2023-05-02T12:06:12;99820.38;;;23.70;41.88
50854;BME280;44154;45.506;-122.806;2023-05-02T12:08:39;99823.66;;;23.67;41.90
50854;BME280;44154;45.506;-122.806;2023-05-02T12:11:06;99821.47;;;23.69;42.07
50854;BME280;44154;45.506;-122.806;2023-05-02T12:13:32;99830.50;;;23.70;42.10
50854;BME280;44154;45.506;-122.806;2023-05-02T12:15:59;99829.41;;;23.66;42.18
50854;BME280;44154;45.506;-122.806;2023-05-02T12:18:25;99831.03;;;23.62;42.09
50854;BME280;44154;45.506;-122.806;2023-05-02T12:20:53;99826.94;;;23.59;41.55
50854;BME280;44154;45.506;-122.806;2023-05-02T12:23:21;99821.19;;;23.45;41.54
50854;BME280;44154;45.506;-122.806;2023-05-02T12:25:48;99839.75;;;23.38;41.68
50854;BME280;44154;45.506;-122.806;2023-05-02T12:28:18;99807.53;;;23.40;41.89
50854;BME280;44154;45.506;-122.806;2023-05-02T12:30:49;99842.53;;;23.84;41.48
50854;BME280;44154;45.506;-122.806;2023-05-02T12:33:16;99831.59;;;23.79;41.26
50854;BME280;44154;45.506;-122.806;2023-05-02T12:35:43;99857.31;;;23.88;41.26
50854;BME280;44154;45.506;-122.806;2023-05-02T12:38:19;99861.13;;;23.87;41.08
50854;BME280;44154;45.506;-122.806;2023-05-02T12:40:53;99858.34;;;23.82;40.98
50854;BME280;44154;45.506;-122.806;2023-05-02T12:43:22;99840.59;;;23.75;40.48
50854;BME280;44154;45.506;-122.806;2023-05-02T12:45:49;99830.47;;;23.75;40.82
50854;BME280;44154;45.506;-122.806;2023-05-02T12:48:19;99823.69;;;23.72;40.99
50854;BME280;44154;45.506;-122.806;2023-05-02T12:50:45;99760.00;;;23.36;41.11
50854;BME280;44154;45.506;-122.806;2023-05-02T12:53:12;99827.47;;;23.66;41.45
50854;BME280;44154;45.506;-122.806;2023-05-02T12:55:38;99829.41;;;23.55;41.57
50854;BME280;44154;45.506;-122.806;2023-05-02T12:58:10;99853.16;;;23.60;41.60
50854;BME280;44154;45.506;-122.806;2023-05-02T13:00:38;99859.44;;;23.55;41.72
50854;BME280;44154;45.506;-122.806;2023-05-02T13:03:05;99836.22;;;23.58;41.78
50854;BME280;44154;45.506;-122.806;2023-05-02T13:05:31;99775.53;;;23.20;41.33
50854;BME280;44154;45.506;-122.806;2023-05-02T13:07:57;99830.75;;;23.58;41.80
50854;BME280;44154;45.506;-122.806;2023-05-02T13:10:24;99820.66;;;23.48;42.07
50854;BME280;44154;45.506;-122.806;2023-05-02T13:12:51;99821.75;;;23.52;41.61
50854;BME280;44154;45.506;-122.806;2023-05-02T13:15:18;99828.00;;;23.48;41.39
50854;BME280;44154;45.506;-122.806;2023-05-02T13:17:44;99838.09;;;23.42;41.34
50854;BME280;44154;45.506;-122.806;2023-05-02T13:20:11;99807.50;;;23.30;41.49